Maxville, Florida
Current Conditions -  °F | °C
As of 12:55 AM on Sunday 23 Nov 2014 (Local Time) from KVQQ Reporting Station
Broken Clouds Broken Clouds  
Wind Chill: 68°   Ceiling: 4800
Heat Index: 68°   Visibility: 9mi
Dew Point: 64°   Wind: 7mph
Humidity: 88%   Direction: 100°E
Pressure: 30.09"   Gusts: NA
Location:  30.2098°N, 81.9726°W
Report Text: KVQQ 230555Z AUTO 10006KT 010V020 9SM BKN048 20/18 A3009 RMK AO2
Loading
Personal Weather Stations






























Interactive Weather Map New forecast layout! Learn more

10-Day Weather Forecast

Advertisements
Track Severe Weather on mobile